sensor_id;sensor_type;location;lat;lon;timestamp;P1;durP1;ratioP1;P2;durP2;ratioP2
23242;SDS011;11790;49.578;11.214;2023-11-22T00:01:11;8.45;;;5.28;;
23242;SDS011;11790;49.578;11.214;2023-11-22T00:06:11;8.15;;;5.43;;
23242;SDS011;11790;49.578;11.214;2023-11-22T00:11:12;8.30;;;5.43;;
23242;SDS011;11790;49.578;11.214;2023-11-22T00:16:14;8.32;;;5.55;;
23242;SDS011;11790;49.578;11.214;2023-11-22T00:21:14;7.57;;;4.88;;
23242;SDS011;11790;49.578;11.214;2023-11-22T00:26:14;7.28;;;4.93;;
23242;SDS011;11790;49.578;11.214;2023-11-22T00:31:15;8.20;;;5.53;;
23242;SDS011;11790;49.578;11.214;2023-11-22T00:36:15;8.13;;;5.00;;
23242;SDS011;11790;49.578;11.214;2023-11-22T00:41:16;7.88;;;5.43;;
23242;SDS011;11790;49.578;11.214;2023-11-22T00:46:16;9.37;;;5.47;;
23242;SDS011;11790;49.578;11.214;2023-11-22T00:51:16;7.53;;;5.13;;
23242;SDS011;11790;49.578;11.214;2023-11-22T00:56:17;7.18;;;4.72;;
23242;SDS011;11790;49.578;11.214;2023-11-22T01:01:17;8.30;;;5.40;;
23242;SDS011;11790;49.578;11.214;2023-11-22T01:06:18;9.32;;;5.78;;
23242;SDS011;11790;49.578;11.214;2023-11-22T01:11:18;10.85;;;5.95;;
23242;SDS011;11790;49.578;11.214;2023-11-22T01:16:18;15.65;;;6.03;;
23242;SDS011;11790;49.578;11.214;2023-11-22T01:21:18;9.90;;;6.28;;
23242;SDS011;11790;49.578;11.214;2023-11-22T01:26:19;10.40;;;6.50;;
23242;SDS011;11790;49.578;11.214;2023-11-22T01:31:19;10.35;;;6.35;;
23242;SDS011;11790;49.578;11.214;2023-11-22T01:36:21;10.02;;;6.68;;
23242;SDS011;11790;49.578;11.214;2023-11-22T01:41:21;9.35;;;6.22;;
23242;SDS011;11790;49.578;11.214;2023-11-22T01:46:22;9.80;;;6.43;;
23242;SDS011;11790;49.578;11.214;2023-11-22T01:51:26;9.77;;;6.20;;
23242;SDS011;11790;49.578;11.214;2023-11-22T01:56:26;12.38;;;7.00;;
23242;SDS011;11790;49.578;11.214;2023-11-22T02:01:27;11.90;;;6.35;;
23242;SDS011;11790;49.578;11.214;2023-11-22T02:06:28;10.52;;;6.60;;
23242;SDS011;11790;49.578;11.214;2023-11-22T02:11:31;13.48;;;7.18;;
23242;SDS011;11790;49.578;11.214;2023-11-22T02:16:31;11.90;;;6.28;;
23242;SDS011;11790;49.578;11.214;2023-11-22T02:21:31;9.60;;;6.47;;
23242;SDS011;11790;49.578;11.214;2023-11-22T02:26:32;10.77;;;6.78;;
23242;SDS011;11790;49.578;11.214;2023-11-22T02:31:33;9.90;;;6.28;;
23242;SDS011;11790;49.578;11.214;2023-11-22T02:36:34;9.50;;;6.57;;
23242;SDS011;11790;49.578;11.214;2023-11-22T02:41:34;9.40;;;5.93;;
23242;SDS011;11790;49.578;11.214;2023-11-22T02:46:35;9.45;;;6.05;;
23242;SDS011;11790;49.578;11.214;2023-11-22T02:51:35;8.88;;;6.03;;
23242;SDS011;11790;49.578;11.214;2023-11-22T02:56:35;11.25;;;5.65;;
23242;SDS011;11790;49.578;11.214;2023-11-22T03:01:35;10.57;;;6.57;;
23242;SDS011;11790;49.578;11.214;2023-11-22T03:06:35;10.27;;;6.40;;
23242;SDS011;11790;49.578;11.214;2023-11-22T03:11:36;11.00;;;6.30;;
23242;SDS011;11790;49.578;11.214;2023-11-22T03:16:38;10.55;;;6.13;;
23242;SDS011;11790;49.578;11.214;2023-11-22T03:21:39;11.57;;;5.50;;
23242;SDS011;11790;49.578;11.214;2023-11-22T03:26:39;9.32;;;6.10;;
23242;SDS011;11790;49.578;11.214;2023-11-22T03:31:39;9.07;;;5.60;;
23242;SDS011;11790;49.578;11.214;2023-11-22T03:36:40;10.80;;;6.28;;
23242;SDS011;11790;49.578;11.214;2023-11-22T03:41:40;14.18;;;6.25;;
23242;SDS011;11790;49.578;11.214;2023-11-22T03:46:40;9.80;;;5.97;;
23242;SDS011;11790;49.578;11.214;2023-11-22T03:51:41;12.32;;;6.15;;
23242;SDS011;11790;49.578;11.214;2023-11-22T03:56:42;12.05;;;6.57;;
23242;SDS011;11790;49.578;11.214;2023-11-22T04:01:42;10.75;;;7.07;;
23242;SDS011;11790;49.578;11.214;2023-11-22T04:06:42;12.00;;;6.70;;
23242;SDS011;11790;49.578;11.214;2023-11-22T04:11:43;10.63;;;6.53;;
23242;SDS011;11790;49.578;11.214;2023-11-22T04:16:43;10.55;;;6.95;;
23242;SDS011;11790;49.578;11.214;2023-11-22T04:21:43;11.57;;;7.22;;
23242;SDS011;11790;49.578;11.214;2023-11-22T04:26:43;16.13;;;7.07;;
23242;SDS011;11790;49.578;11.214;2023-11-22T04:31:44;10.38;;;6.97;;
23242;SDS011;11790;49.578;11.214;2023-11-22T04:36:44;11.55;;;7.22;;
23242;SDS011;11790;49.578;11.214;2023-11-22T04:41:46;12.32;;;7.20;;
23242;SDS011;11790;49.578;11.214;2023-11-22T04:46:46;13.07;;;6.95;;
23242;SDS011;11790;49.578;11.214;2023-11-22T04:51:46;11.13;;;6.80;;
23242;SDS011;11790;49.578;11.214;2023-11-22T04:56:46;15.05;;;7.82;;
23242;SDS011;11790;49.578;11.214;2023-11-22T05:01:47;15.90;;;8.32;;
23242;SDS011;11790;49.578;11.214;2023-11-22T05:06:48;15.73;;;8.68;;
23242;SDS011;11790;49.578;11.214;2023-11-22T05:11:49;16.95;;;9.88;;
23242;SDS011;11790;49.578;11.214;2023-11-22T05:16:49;20.38;;;11.32;;
23242;SDS011;11790;49.578;11.214;2023-11-22T05:21:49;22.38;;;11.60;;
23242;SDS011;11790;49.578;11.214;2023-11-22T05:26:49;20.70;;;11.55;;
23242;SDS011;11790;49.578;11.214;2023-11-22T05:31:49;19.40;;;10.85;;
23242;SDS011;11790;49.578;11.214;2023-11-22T05:36:50;17.20;;;10.75;;
23242;SDS011;11790;49.578;11.214;2023-11-22T05:41:53;16.98;;;10.73;;
23242;SDS011;11790;49.578;11.214;2023-11-22T05:46:53;18.55;;;10.98;;
23242;SDS011;11790;49.578;11.214;2023-11-22T05:51:54;18.75;;;11.00;;
23242;SDS011;11790;49.578;11.214;2023-11-22T05:56:54;19.13;;;11.05;;
23242;SDS011;11790;49.578;11.214;2023-11-22T06:01:54;18.45;;;10.25;;
23242;SDS011;11790;49.578;11.214;2023-11-22T06:06:55;19.27;;;11.48;;
23242;SDS011;11790;49.578;11.214;2023-11-22T06:11:55;18.20;;;10.35;;
23242;SDS011;11790;49.578;11.214;2023-11-22T06:16:55;16.27;;;9.45;;
23242;SDS011;11790;49.578;11.214;2023-11-22T06:21:55;15.50;;;8.88;;
23242;SDS011;11790;49.578;11.214;2023-11-22T06:26:55;15.63;;;8.93;;
23242;SDS011;11790;49.578;11.214;2023-11-22T06:31:56;19.42;;;10.05;;
23242;SDS011;11790;49.578;11.214;2023-11-22T06:36:56;18.60;;;10.95;;
23242;SDS011;11790;49.578;11.214;2023-11-22T06:41:56;21.95;;;12.13;;
23242;SDS011;11790;49.578;11.214;2023-11-22T06:46:56;18.33;;;10.98;;
23242;SDS011;11790;49.578;11.214;2023-11-22T06:51:57;21.98;;;10.50;;
23242;SDS011;11790;49.578;11.214;2023-11-22T06:56:57;19.98;;;10.57;;
23242;SDS011;11790;49.578;11.214;2023-11-22T07:01:57;16.63;;;10.40;;
23242;SDS011;11790;49.578;11.214;2023-11-22T07:06:57;21.50;;;10.05;;
23242;SDS011;11790;49.578;11.214;2023-11-22T07:11:57;18.92;;;10.77;;
23242;SDS011;11790;49.578;11.214;2023-11-22T07:16:58;16.02;;;9.68;;
23242;SDS011;11790;49.578;11.214;2023-11-22T07:21:59;17.92;;;10.52;;
23242;SDS011;11790;49.578;11.214;2023-11-22T07:26:59;18.33;;;10.43;;
23242;SDS011;11790;49.578;11.214;2023-11-22T07:32:00;20.27;;;10.68;;
23242;SDS011;11790;49.578;11.214;2023-11-22T07:37:01;19.00;;;11.18;;
23242;SDS011;11790;49.578;11.214;2023-11-22T07:42:01;24.38;;;12.70;;
23242;SDS011;11790;49.578;11.214;2023-11-22T07:47:02;21.25;;;11.82;;
23242;SDS011;11790;49.578;11.214;2023-11-22T07:52:03;30.98;;;12.35;;
23242;SDS011;11790;49.578;11.214;2023-11-22T07:57:03;21.75;;;12.20;;
23242;SDS011;11790;49.578;11.214;2023-11-22T08:02:04;22.40;;;12.90;;
23242;SDS011;11790;49.578;11.214;2023-11-22T08:07:06;20.35;;;12.07;;
23242;SDS011;11790;49.578;11.214;2023-11-22T08:12:07;23.00;;;13.80;;
23242;SDS011;11790;49.578;11.214;2023-11-22T08:17:07;26.80;;;13.43;;
23242;SDS011;11790;49.578;11.214;2023-11-22T08:22:08;21.98;;;12.10;;
23242;SDS011;11790;49.578;11.214;2023-11-22T08:27:08;23.63;;;12.90;;
23242;SDS011;11790;49.578;11.214;2023-11-22T08:32:08;30.15;;;13.18;;
23242;SDS011;11790;49.578;11.214;2023-11-22T08:37:10;23.05;;;12.40;;
23242;SDS011;11790;49.578;11.214;2023-11-22T08:42:10;22.98;;;13.45;;
23242;SDS011;11790;49.578;11.214;2023-11-22T08:47:10;19.63;;;11.60;;
23242;SDS011;11790;49.578;11.214;2023-11-22T08:52:10;18.90;;;11.82;;
23242;SDS011;11790;49.578;11.214;2023-11-22T08:57:11;21.13;;;11.48;;
23242;SDS011;11790;49.578;11.214;2023-11-22T09:02:11;17.13;;;10.82;;
23242;SDS011;11790;49.578;11.214;2023-11-22T09:07:12;20.70;;;11.02;;
23242;SDS011;11790;49.578;11.214;2023-11-22T09:12:14;19.95;;;11.15;;
23242;SDS011;11790;49.578;11.214;2023-11-22T09:17:14;19.95;;;10.77;;
23242;SDS011;11790;49.578;11.214;2023-11-22T09:22:14;17.95;;;11.07;;
23242;SDS011;11790;49.578;11.214;2023-11-22T09:27:15;17.53;;;10.80;;
23242;SDS011;11790;49.578;11.214;2023-11-22T09:32:18;16.23;;;9.70;;
23242;SDS011;11790;49.578;11.214;2023-11-22T09:37:18;23.10;;;11.23;;
23242;SDS011;11790;49.578;11.214;2023-11-22T09:42:18;19.23;;;10.02;;
23242;SDS011;11790;49.578;11.214;2023-11-22T09:47:20;16.92;;;9.32;;
23242;SDS011;11790;49.578;11.214;2023-11-22T09:52:22;20.80;;;10.80;;
23242;SDS011;11790;49.578;11.214;2023-11-22T09:57:25;28.85;;;9.80;;
23242;SDS011;11790;49.578;11.214;2023-11-22T10:02:25;26.80;;;10.82;;
23242;SDS011;11790;49.578;11.214;2023-11-22T10:07:27;17.48;;;9.63;;
23242;SDS011;11790;49.578;11.214;2023-11-22T10:12:29;16.55;;;10.00;;
23242;SDS011;11790;49.578;11.214;2023-11-22T10:17:29;19.08;;;10.65;;
23242;SDS011;11790;49.578;11.214;2023-11-22T10:22:29;17.33;;;10.13;;
23242;SDS011;11790;49.578;11.214;2023-11-22T10:27:30;15.70;;;9.65;;
23242;SDS011;11790;49.578;11.214;2023-11-22T10:32:30;18.42;;;10.00;;
23242;SDS011;11790;49.578;11.214;2023-11-22T10:37:30;17.95;;;10.27;;
23242;SDS011;11790;49.578;11.214;2023-11-22T10:42:31;18.90;;;9.73;;
23242;SDS011;11790;49.578;11.214;2023-11-22T10:47:31;17.85;;;9.63;;
23242;SDS011;11790;49.578;11.214;2023-11-22T10:52:32;17.90;;;9.80;;
23242;SDS011;11790;49.578;11.214;2023-11-22T10:57:36;19.42;;;9.32;;
23242;SDS011;11790;49.578;11.214;2023-11-22T11:02:45;21.77;;;9.43;;
23242;SDS011;11790;49.578;11.214;2023-11-22T11:07:49;19.58;;;9.75;;
23242;SDS011;11790;49.578;11.214;2023-11-22T11:12:52;15.55;;;9.02;;
23242;SDS011;11790;49.578;11.214;2023-11-22T11:17:53;18.38;;;9.35;;
23242;SDS011;11790;49.578;11.214;2023-11-22T11:22:54;34.72;;;10.93;;
23242;SDS011;11790;49.578;11.214;2023-11-22T11:27:56;18.92;;;9.73;;
23242;SDS011;11790;49.578;11.214;2023-11-22T11:33:00;20.17;;;9.45;;
23242;SDS011;11790;49.578;11.214;2023-11-22T11:38:01;20.45;;;9.75;;
23242;SDS011;11790;49.578;11.214;2023-11-22T11:43:04;13.23;;;8.10;;
23242;SDS011;11790;49.578;11.214;2023-11-22T11:48:05;13.90;;;8.50;;
23242;SDS011;11790;49.578;11.214;2023-11-22T11:53:05;11.43;;;7.57;;
23242;SDS011;11790;49.578;11.214;2023-11-22T11:58:05;16.70;;;9.18;;
23242;SDS011;11790;49.578;11.214;2023-11-22T12:03:09;17.70;;;8.07;;
23242;SDS011;11790;49.578;11.214;2023-11-22T12:08:12;13.68;;;8.10;;
23242;SDS011;11790;49.578;11.214;2023-11-22T12:13:20;25.33;;;9.05;;
23242;SDS011;11790;49.578;11.214;2023-11-22T12:18:24;18.57;;;8.00;;
23242;SDS011;11790;49.578;11.214;2023-11-22T12:23:25;11.95;;;7.35;;
23242;SDS011;11790;49.578;11.214;2023-11-22T12:28:27;14.68;;;8.45;;
23242;SDS011;11790;49.578;11.214;2023-11-22T12:33:28;14.68;;;8.35;;
23242;SDS011;11790;49.578;11.214;2023-11-22T12:38:28;22.42;;;10.00;;
23242;SDS011;11790;49.578;11.214;2023-11-22T12:43:29;18.27;;;11.10;;
23242;SDS011;11790;49.578;11.214;2023-11-22T12:48:30;16.27;;;9.57;;
23242;SDS011;11790;49.578;11.214;2023-11-22T12:53:32;22.23;;;8.80;;
23242;SDS011;11790;49.578;11.214;2023-11-22T12:58:33;21.73;;;9.07;;
23242;SDS011;11790;49.578;11.214;2023-11-22T13:03:33;16.00;;;8.35;;
23242;SDS011;11790;49.578;11.214;2023-11-22T13:08:34;39.38;;;9.95;;
23242;SDS011;11790;49.578;11.214;2023-11-22T13:13:35;13.27;;;8.10;;
23242;SDS011;11790;49.578;11.214;2023-11-22T13:18:36;13.80;;;8.27;;
23242;SDS011;11790;49.578;11.214;2023-11-22T13:23:37;14.45;;;8.95;;
23242;SDS011;11790;49.578;11.214;2023-11-22T13:28:37;17.20;;;8.40;;
23242;SDS011;11790;49.578;11.214;2023-11-22T13:33:38;14.40;;;8.15;;
23242;SDS011;11790;49.578;11.214;2023-11-22T13:38:38;16.38;;;8.30;;
23242;SDS011;11790;49.578;11.214;2023-11-22T13:43:39;16.33;;;9.10;;
23242;SDS011;11790;49.578;11.214;2023-11-22T13:48:39;14.57;;;9.30;;
23242;SDS011;11790;49.578;11.214;2023-11-22T13:53:41;16.58;;;8.90;;
23242;SDS011;11790;49.578;11.214;2023-11-22T13:58:44;15.68;;;9.35;;
23242;SDS011;11790;49.578;11.214;2023-11-22T14:03:44;27.63;;;9.82;;
23242;SDS011;11790;49.578;11.214;2023-11-22T14:08:44;16.25;;;9.40;;
23242;SDS011;11790;49.578;11.214;2023-11-22T14:13:45;25.85;;;11.13;;
23242;SDS011;11790;49.578;11.214;2023-11-22T14:18:45;17.60;;;9.98;;
23242;SDS011;11790;49.578;11.214;2023-11-22T14:23:45;20.02;;;11.25;;
23242;SDS011;11790;49.578;11.214;2023-11-22T14:28:45;20.98;;;11.05;;
23242;SDS011;11790;49.578;11.214;2023-11-22T14:33:47;18.95;;;11.20;;
23242;SDS011;11790;49.578;11.214;2023-11-22T14:38:47;18.98;;;10.65;;
23242;SDS011;11790;49.578;11.214;2023-11-22T14:48:54;16.42;;;10.20;;
23242;SDS011;11790;49.578;11.214;2023-11-22T14:53:54;18.27;;;10.27;;
23242;SDS011;11790;49.578;11.214;2023-11-22T14:58:54;19.92;;;10.52;;
23242;SDS011;11790;49.578;11.214;2023-11-22T15:03:55;20.80;;;10.43;;
23242;SDS011;11790;49.578;11.214;2023-11-22T15:08:55;17.27;;;9.68;;
23242;SDS011;11790;49.578;11.214;2023-11-22T15:13:58;18.65;;;10.52;;
23242;SDS011;11790;49.578;11.214;2023-11-22T15:18:59;19.08;;;10.75;;
23242;SDS011;11790;49.578;11.214;2023-11-22T15:24:01;18.60;;;10.35;;
23242;SDS011;11790;49.578;11.214;2023-11-22T15:29:03;18.35;;;10.05;;
23242;SDS011;11790;49.578;11.214;2023-11-22T15:34:03;18.08;;;10.35;;
23242;SDS011;11790;49.578;11.214;2023-11-22T15:39:03;16.77;;;10.05;;
23242;SDS011;11790;49.578;11.214;2023-11-22T15:44:05;17.13;;;10.80;;
23242;SDS011;11790;49.578;11.214;2023-11-22T15:49:06;21.50;;;10.40;;
23242;SDS011;11790;49.578;11.214;2023-11-22T15:54:06;17.40;;;10.02;;
23242;SDS011;11790;49.578;11.214;2023-11-22T15:59:08;17.02;;;10.35;;
23242;SDS011;11790;49.578;11.214;2023-11-22T16:04:08;25.25;;;11.02;;
23242;SDS011;11790;49.578;11.214;2023-11-22T16:14:18;17.67;;;10.77;;
23242;SDS011;11790;49.578;11.214;2023-11-22T16:19:18;17.50;;;9.63;;
23242;SDS011;11790;49.578;11.214;2023-11-22T16:24:18;18.40;;;10.95;;
23242;SDS011;11790;49.578;11.214;2023-11-22T16:29:19;20.50;;;11.50;;
23242;SDS011;11790;49.578;11.214;2023-11-22T16:34:19;31.52;;;11.35;;
23242;SDS011;11790;49.578;11.214;2023-11-22T16:39:19;19.02;;;11.68;;
23242;SDS011;11790;49.578;11.214;2023-11-22T16:44:40;21.90;;;11.90;;
23242;SDS011;11790;49.578;11.214;2023-11-22T16:49:43;24.02;;;12.75;;
23242;SDS011;11790;49.578;11.214;2023-11-22T16:54:47;20.58;;;12.10;;
23242;SDS011;11790;49.578;11.214;2023-11-22T16:59:47;25.05;;;11.65;;
23242;SDS011;11790;49.578;11.214;2023-11-22T17:10:25;26.95;;;11.80;;
23242;SDS011;11790;49.578;11.214;2023-11-22T17:15:26;26.67;;;11.77;;
23242;SDS011;11790;49.578;11.214;2023-11-22T17:20:26;20.35;;;12.15;;
23242;SDS011;11790;49.578;11.214;2023-11-22T17:25:26;19.85;;;11.68;;
23242;SDS011;11790;49.578;11.214;2023-11-22T17:30:26;22.77;;;13.37;;
23242;SDS011;11790;49.578;11.214;2023-11-22T17:35:28;20.58;;;12.80;;
23242;SDS011;11790;49.578;11.214;2023-11-22T17:40:28;25.30;;;12.32;;
23242;SDS011;11790;49.578;11.214;2023-11-22T17:45:30;20.55;;;12.00;;
23242;SDS011;11790;49.578;11.214;2023-11-22T17:50:30;22.30;;;12.10;;
23242;SDS011;11790;49.578;11.214;2023-11-22T17:55:30;26.03;;;12.60;;
23242;SDS011;11790;49.578;11.214;2023-11-22T18:00:30;21.88;;;12.43;;
23242;SDS011;11790;49.578;11.214;2023-11-22T18:05:31;22.73;;;13.13;;
23242;SDS011;11790;49.578;11.214;2023-11-22T18:16:09;21.45;;;12.82;;
23242;SDS011;11790;49.578;11.214;2023-11-22T18:21:09;20.17;;;12.18;;
23242;SDS011;11790;49.578;11.214;2023-11-22T18:26:10;25.35;;;14.52;;
23242;SDS011;11790;49.578;11.214;2023-11-22T18:31:11;23.02;;;13.73;;
23242;SDS011;11790;49.578;11.214;2023-11-22T18:36:13;26.98;;;14.77;;
23242;SDS011;11790;49.578;11.214;2023-11-22T18:41:14;26.15;;;14.35;;
23242;SDS011;11790;49.578;11.214;2023-11-22T18:46:16;27.13;;;16.15;;
23242;SDS011;11790;49.578;11.214;2023-11-22T18:51:17;26.50;;;15.05;;
23242;SDS011;11790;49.578;11.214;2023-11-22T18:56:17;26.27;;;14.30;;
23242;SDS011;11790;49.578;11.214;2023-11-22T19:01:17;25.13;;;13.65;;
23242;SDS011;11790;49.578;11.214;2023-11-22T19:06:20;25.92;;;14.32;;
23242;SDS011;11790;49.578;11.214;2023-11-22T19:11:21;23.83;;;13.80;;
23242;SDS011;11790;49.578;11.214;2023-11-22T19:16:21;22.70;;;13.15;;
23242;SDS011;11790;49.578;11.214;2023-11-22T19:21:22;28.65;;;14.65;;
23242;SDS011;11790;49.578;11.214;2023-11-22T19:26:23;23.50;;;13.30;;
23242;SDS011;11790;49.578;11.214;2023-11-22T19:31:23;21.50;;;12.57;;
23242;SDS011;11790;49.578;11.214;2023-11-22T19:36:24;23.08;;;13.35;;
23242;SDS011;11790;49.578;11.214;2023-11-22T19:41:24;20.42;;;12.88;;
23242;SDS011;11790;49.578;11.214;2023-11-22T19:46:24;23.95;;;12.32;;
23242;SDS011;11790;49.578;11.214;2023-11-22T19:51:25;22.10;;;11.93;;
23242;SDS011;11790;49.578;11.214;2023-11-22T19:56:26;23.73;;;14.07;;
23242;SDS011;11790;49.578;11.214;2023-11-22T20:01:27;23.92;;;14.15;;
23242;SDS011;11790;49.578;11.214;2023-11-22T20:06:27;26.92;;;14.27;;
23242;SDS011;11790;49.578;11.214;2023-11-22T20:11:28;25.38;;;13.40;;
23242;SDS011;11790;49.578;11.214;2023-11-22T20:16:28;20.52;;;12.50;;
23242;SDS011;11790;49.578;11.214;2023-11-22T20:21:28;20.10;;;12.35;;
23242;SDS011;11790;49.578;11.214;2023-11-22T20:26:28;23.15;;;13.27;;
23242;SDS011;11790;49.578;11.214;2023-11-22T20:31:29;26.92;;;14.35;;
23242;SDS011;11790;49.578;11.214;2023-11-22T20:36:29;24.88;;;14.48;;
23242;SDS011;11790;49.578;11.214;2023-11-22T20:41:29;21.33;;;13.63;;
23242;SDS011;11790;49.578;11.214;2023-11-22T20:46:30;21.30;;;13.25;;
23242;SDS011;11790;49.578;11.214;2023-11-22T20:51:31;22.85;;;14.35;;
23242;SDS011;11790;49.578;11.214;2023-11-22T20:56:31;25.08;;;15.02;;
23242;SDS011;11790;49.578;11.214;2023-11-22T21:01:31;29.10;;;15.37;;
23242;SDS011;11790;49.578;11.214;2023-11-22T21:06:32;25.47;;;13.77;;
23242;SDS011;11790;49.578;11.214;2023-11-22T21:11:32;22.05;;;13.38;;
23242;SDS011;11790;49.578;11.214;2023-11-22T21:16:33;23.75;;;13.90;;
23242;SDS011;11790;49.578;11.214;2023-11-22T21:21:35;24.75;;;14.20;;
23242;SDS011;11790;49.578;11.214;2023-11-22T21:26:35;27.98;;;15.35;;
23242;SDS011;11790;49.578;11.214;2023-11-22T21:31:35;25.40;;;14.68;;
23242;SDS011;11790;49.578;11.214;2023-11-22T21:42:14;25.40;;;13.75;;
23242;SDS011;11790;49.578;11.214;2023-11-22T21:47:15;27.60;;;15.70;;
23242;SDS011;11790;49.578;11.214;2023-11-22T21:52:15;26.88;;;15.05;;
23242;SDS011;11790;49.578;11.214;2023-11-22T21:57:15;26.48;;;15.85;;
23242;SDS011;11790;49.578;11.214;2023-11-22T22:02:19;27.60;;;16.13;;
23242;SDS011;11790;49.578;11.214;2023-11-22T22:07:20;30.23;;;15.52;;
23242;SDS011;11790;49.578;11.214;2023-11-22T22:12:20;26.95;;;15.02;;
23242;SDS011;11790;49.578;11.214;2023-11-22T22:17:20;26.58;;;15.25;;
23242;SDS011;11790;49.578;11.214;2023-11-22T22:22:22;26.38;;;16.00;;
23242;SDS011;11790;49.578;11.214;2023-11-22T22:27:22;27.50;;;15.35;;
23242;SDS011;11790;49.578;11.214;2023-11-22T22:32:22;29.52;;;16.75;;
23242;SDS011;11790;49.578;11.214;2023-11-22T22:37:23;26.83;;;16.17;;
23242;SDS011;11790;49.578;11.214;2023-11-22T22:42:23;27.70;;;16.02;;
23242;SDS011;11790;49.578;11.214;2023-11-22T22:47:23;28.17;;;16.58;;
23242;SDS011;11790;49.578;11.214;2023-11-22T22:52:24;27.65;;;15.77;;
23242;SDS011;11790;49.578;11.214;2023-11-22T22:57:24;29.13;;;16.45;;
23242;SDS011;11790;49.578;11.214;2023-11-22T23:02:24;28.33;;;16.90;;
23242;SDS011;11790;49.578;11.214;2023-11-22T23:07:24;28.48;;;16.95;;
23242;SDS011;11790;49.578;11.214;2023-11-22T23:12:25;29.23;;;17.67;;
23242;SDS011;11790;49.578;11.214;2023-11-22T23:17:26;31.23;;;18.25;;
23242;SDS011;11790;49.578;11.214;2023-11-22T23:22:26;30.85;;;18.63;;
23242;SDS011;11790;49.578;11.214;2023-11-22T23:27:26;30.80;;;17.90;;
23242;SDS011;11790;49.578;11.214;2023-11-22T23:32:26;28.58;;;17.58;;
23242;SDS011;11790;49.578;11.214;2023-11-22T23:37:26;30.92;;;17.45;;
23242;SDS011;11790;49.578;11.214;2023-11-22T23:42:27;31.20;;;17.88;;
23242;SDS011;11790;49.578;11.214;2023-11-22T23:47:27;30.30;;;17.70;;
23242;SDS011;11790;49.578;11.214;2023-11-22T23:52:28;35.78;;;18.23;;
23242;SDS011;11790;49.578;11.214;2023-11-22T23:57:28;30.75;;;16.98;;
